createdAt,value
2023-03-14T00:01:49.435Z,24.64
2023-03-14T00:05:49.562Z,24.69
2023-03-14T00:09:49.742Z,24.61
2023-03-14T00:13:49.942Z,24.66
2023-03-14T00:17:50.147Z,24.64
2023-03-14T00:21:50.296Z,24.65
2023-03-14T00:25:50.506Z,24.63
2023-03-14T00:29:50.697Z,24.64
2023-03-14T00:33:50.931Z,24.68
2023-03-14T00:37:51.120Z,24.69
2023-03-14T00:41:51.312Z,24.71
2023-03-14T00:45:51.478Z,24.71
2023-03-14T00:49:51.716Z,24.69
2023-03-14T00:53:51.893Z,24.70
2023-03-14T00:57:52.103Z,24.72
2023-03-14T01:01:52.414Z,24.75
2023-03-14T01:05:52.594Z,24.72
2023-03-14T01:09:52.508Z,24.75
2023-03-14T01:13:52.424Z,24.75
2023-03-14T01:17:52.414Z,24.75
2023-03-14T01:21:52.479Z,24.78
2023-03-14T01:25:52.406Z,24.77
2023-03-14T01:29:52.643Z,24.79
2023-03-14T01:33:52.292Z,24.78
2023-03-14T01:37:52.307Z,24.78
2023-03-14T01:41:52.254Z,24.77
2023-03-14T01:45:52.205Z,24.77
2023-03-14T01:49:52.191Z,24.77
2023-03-14T01:53:52.398Z,24.78
2023-03-14T01:57:52.699Z,24.78
2023-03-14T02:01:52.838Z,24.77
2023-03-14T02:05:52.834Z,24.76
2023-03-14T02:09:52.775Z,24.81
2023-03-14T02:13:52.738Z,24.78
2023-03-14T02:17:52.733Z,24.81
2023-03-14T02:21:52.641Z,24.82
2023-03-14T02:25:52.617Z,24.82
2023-03-14T02:29:52.593Z,24.85
2023-03-14T02:33:52.563Z,24.84
2023-03-14T02:37:52.494Z,24.84
2023-03-14T02:41:52.605Z,24.84
2023-03-14T02:45:52.637Z,24.85
2023-03-14T02:49:52.806Z,24.85
2023-03-14T02:53:53.028Z,24.79
2023-03-14T02:57:53.010Z,24.82
2023-03-14T03:01:52.983Z,24.85
2023-03-14T03:05:52.925Z,24.88
2023-03-14T03:09:52.919Z,24.88
2023-03-14T03:13:52.898Z,24.90
2023-03-14T03:17:52.811Z,24.92
2023-03-14T03:21:52.792Z,24.90
2023-03-14T03:25:52.859Z,24.94
2023-03-14T03:29:53.161Z,24.95
2023-03-14T03:33:52.735Z,24.94
2023-03-14T03:37:52.739Z,24.96
2023-03-14T03:41:52.728Z,24.93
2023-03-14T03:45:52.686Z,24.97
2023-03-14T03:49:52.654Z,24.94
2023-03-14T03:53:52.658Z,24.96
2023-03-14T03:57:52.542Z,24.98
2023-03-14T04:01:52.547Z,24.98
2023-03-14T04:05:52.546Z,24.95
2023-03-14T04:09:52.499Z,24.97
2023-03-14T04:13:52.683Z,24.98
2023-03-14T04:17:52.773Z,24.98
2023-03-14T04:21:52.505Z,24.94
2023-03-14T04:25:52.695Z,25.01
2023-03-14T04:29:52.475Z,25.01
2023-03-14T04:33:52.401Z,25.05
2023-03-14T04:37:52.385Z,25.04
2023-03-14T04:41:52.330Z,25.02
2023-03-14T04:45:52.281Z,25.01
2023-03-14T04:49:52.372Z,25.05
2023-03-14T04:53:52.321Z,25.09
2023-03-14T04:57:52.253Z,25.09
2023-03-14T05:01:52.284Z,25.06
2023-03-14T05:05:52.206Z,25.10
2023-03-14T05:09:52.111Z,25.25
2023-03-14T05:13:52.124Z,25.33
2023-03-14T05:17:52.070Z,25.44
2023-03-14T05:21:52.073Z,25.43
2023-03-14T05:25:52.031Z,25.54
2023-03-14T05:29:52.235Z,25.58
2023-03-14T05:33:52.182Z,25.63
2023-03-14T05:37:52.090Z,25.60
2023-03-14T05:41:52.036Z,25.59
2023-03-14T05:45:52.058Z,25.60
2023-03-14T05:49:51.991Z,25.60
2023-03-14T05:53:51.980Z,25.58
2023-03-14T05:57:51.932Z,25.55
2023-03-14T06:01:51.949Z,25.56
2023-03-14T06:05:51.858Z,25.56
2023-03-14T06:09:51.870Z,25.53
2023-03-14T06:13:51.873Z,25.54
2023-03-14T06:17:52.046Z,25.51
2023-03-14T06:21:52.694Z,25.55
2023-03-14T06:25:52.241Z,25.52
2023-03-14T06:29:52.176Z,25.52
2023-03-14T06:33:52.108Z,25.86
2023-03-14T06:37:52.133Z,26.47
2023-03-14T06:41:52.150Z,27.89
2023-03-14T06:45:52.108Z,28.97
2023-03-14T06:49:51.957Z,29.39
2023-03-14T06:53:52.096Z,29.25
2023-03-14T06:57:51.871Z,29.36
2023-03-14T07:01:52.186Z,29.83
2023-03-14T07:05:52.840Z,29.22
2023-03-14T07:09:51.945Z,28.65
2023-03-14T07:13:51.770Z,28.26
2023-03-14T07:17:51.755Z,28.00
2023-03-14T07:21:51.913Z,27.84
2023-03-14T07:26:06.759Z,27.71
2023-03-14T07:29:51.867Z,27.61
2023-03-14T07:33:51.815Z,27.57
2023-03-14T07:37:51.804Z,27.47
2023-03-14T07:41:51.843Z,27.38
2023-03-14T07:45:59.063Z,27.37
2023-03-14T07:49:52.666Z,27.51
2023-03-14T07:53:51.614Z,27.88
2023-03-14T07:57:51.694Z,27.97
2023-03-14T08:01:51.859Z,28.04
2023-03-14T08:05:51.979Z,28.05
2023-03-14T08:09:52.167Z,27.46
2023-03-14T08:13:52.303Z,27.53
2023-03-14T08:17:52.351Z,27.50
2023-03-14T08:21:52.473Z,27.80
2023-03-14T08:25:52.500Z,27.73
2023-03-14T08:29:52.575Z,28.13
2023-03-14T08:33:52.612Z,28.40
2023-03-14T08:37:52.860Z,29.01
2023-03-14T08:41:53.012Z,29.41
2023-03-14T08:45:53.821Z,29.46
2023-03-14T08:49:53.405Z,29.54
2023-03-14T08:53:53.315Z,29.64
2023-03-14T08:57:53.323Z,29.72
2023-03-14T09:01:53.670Z,29.59
2023-03-14T09:05:54.392Z,29.51
2023-03-14T09:09:53.462Z,29.54
2023-03-14T09:13:53.798Z,29.56
2023-03-14T09:17:53.591Z,29.70
2023-03-14T09:21:53.507Z,29.74
2023-03-14T09:25:53.476Z,29.73
2023-03-14T09:29:53.450Z,27.78
2023-03-14T09:33:53.444Z,27.58
2023-03-14T09:37:53.362Z,27.52
2023-03-14T09:41:53.361Z,28.51
2023-03-14T09:45:53.327Z,28.41
2023-03-14T09:49:53.504Z,28.27
2023-03-14T09:53:53.263Z,28.37
2023-03-14T09:57:53.315Z,28.28
2023-03-14T10:01:53.230Z,28.30
2023-03-14T10:05:53.134Z,28.19
2023-03-14T10:09:53.680Z,28.31
2023-03-14T10:13:53.143Z,28.39
2023-03-14T10:17:53.055Z,28.46
2023-03-14T10:21:53.018Z,28.36
2023-03-14T10:25:53.030Z,28.43
2023-03-14T10:29:52.974Z,28.99
2023-03-14T10:33:53.630Z,29.21
2023-03-14T10:37:52.886Z,29.21
2023-03-14T10:41:52.968Z,29.17
2023-03-14T10:45:52.915Z,29.10
2023-03-14T10:49:53.915Z,28.96
2023-03-14T10:53:52.781Z,28.97
2023-03-14T10:57:52.720Z,28.88
2023-03-14T11:01:52.699Z,28.85
2023-03-14T11:05:52.619Z,28.83
2023-03-14T11:09:52.560Z,28.92
2023-03-14T11:13:52.591Z,28.79
2023-03-14T11:17:52.792Z,28.96
2023-03-14T11:21:52.737Z,28.99
2023-03-14T11:25:53.368Z,29.11
2023-03-14T11:29:53.407Z,29.42
2023-03-14T11:33:52.689Z,29.22
2023-03-14T11:37:52.923Z,29.12
2023-03-14T11:41:52.564Z,29.36
2023-03-14T11:45:52.591Z,29.33
2023-03-14T11:49:52.462Z,29.29
2023-03-14T11:53:53.109Z,29.21
2023-03-14T11:57:52.400Z,29.21
2023-03-14T12:01:52.430Z,29.15
2023-03-14T12:05:52.402Z,29.02
2023-03-14T12:09:52.584Z,28.91
2023-03-14T12:13:52.708Z,29.17
2023-03-14T12:17:52.996Z,28.58
2023-03-14T12:21:52.997Z,28.08
2023-03-14T12:25:52.894Z,27.16
2023-03-14T12:29:52.853Z,27.06
2023-03-14T12:33:52.801Z,26.91
2023-03-14T12:37:52.778Z,26.58
2023-03-14T12:41:52.700Z,26.39
2023-03-14T12:45:52.766Z,26.41
2023-03-14T12:49:52.660Z,26.35
2023-03-14T12:53:52.628Z,26.28
2023-03-14T12:57:52.568Z,26.18
2023-03-14T13:01:52.541Z,26.28
2023-03-14T13:05:52.499Z,27.56
2023-03-14T13:09:52.411Z,28.16
2023-03-14T13:13:52.410Z,29.04
2023-03-14T13:17:52.516Z,29.68
2023-03-14T13:21:52.354Z,29.99
2023-03-14T13:25:52.334Z,29.87
2023-03-14T13:29:52.374Z,29.59
2023-03-14T13:33:52.263Z,29.61
2023-03-14T13:37:57.922Z,29.54
2023-03-14T13:41:53.370Z,29.47
2023-03-14T13:45:52.512Z,29.59
2023-03-14T13:49:52.310Z,29.64
2023-03-14T13:53:52.337Z,29.15
2023-03-14T13:57:52.331Z,28.91
2023-03-14T14:01:52.542Z,28.83
2023-03-14T14:05:52.381Z,28.88
2023-03-14T14:09:52.405Z,28.64
2023-03-14T14:13:52.547Z,28.59
2023-03-14T14:17:52.510Z,29.01
2023-03-14T14:21:53.409Z,29.40
2023-03-14T14:25:52.614Z,29.62
2023-03-14T14:29:52.640Z,29.76
2023-03-14T14:33:52.567Z,29.77
2023-03-14T14:37:52.552Z,29.97
2023-03-14T14:41:52.502Z,30.26
2023-03-14T14:45:52.563Z,29.51
2023-03-14T14:49:52.439Z,29.14
2023-03-14T14:53:52.410Z,28.89
2023-03-14T14:57:52.369Z,28.68
2023-03-14T15:01:52.396Z,28.55
2023-03-14T15:05:52.303Z,28.40
2023-03-14T15:09:52.246Z,28.28
2023-03-14T15:13:52.260Z,28.21
2023-03-14T15:17:52.161Z,28.11
2023-03-14T15:21:52.118Z,28.14
2023-03-14T15:25:55.841Z,27.91
2023-03-14T15:29:52.033Z,27.92
2023-03-14T15:33:51.982Z,27.91
2023-03-14T15:37:52.048Z,27.94
2023-03-14T15:41:51.920Z,27.78
2023-03-14T15:45:52.112Z,27.86
2023-03-14T15:49:51.866Z,27.96
2023-03-14T15:53:51.827Z,27.96
2023-03-14T15:57:51.812Z,27.99
2023-03-14T16:01:51.791Z,28.05
2023-03-14T16:05:51.711Z,28.00
2023-03-14T16:09:51.696Z,28.07
2023-03-14T16:13:51.609Z,28.04
2023-03-14T16:17:51.948Z,28.09
2023-03-14T16:21:52.324Z,28.02
2023-03-14T16:25:51.515Z,28.04
2023-03-14T16:29:51.539Z,28.07
2023-03-14T16:33:51.534Z,28.05
2023-03-14T16:37:51.572Z,28.05
2023-03-14T16:41:51.701Z,28.06
2023-03-14T16:45:51.937Z,28.06
2023-03-14T16:49:51.890Z,28.03
2023-03-14T16:53:52.097Z,28.03
2023-03-14T16:57:52.115Z,28.01
2023-03-14T17:01:52.378Z,28.03
2023-03-14T17:05:52.388Z,28.04
2023-03-14T17:09:52.511Z,28.06
2023-03-14T17:13:52.696Z,28.08
2023-03-14T17:17:52.811Z,28.04
2023-03-14T17:21:57.908Z,28.02
2023-03-14T17:25:53.948Z,27.97
2023-03-14T17:29:52.893Z,28.01
2023-03-14T17:33:52.878Z,27.94
2023-03-14T17:37:53.009Z,27.98
2023-03-14T17:41:53.329Z,27.91
2023-03-14T17:45:53.378Z,27.96
2023-03-14T17:49:53.533Z,27.91
2023-03-14T17:53:53.778Z,27.87
2023-03-14T17:57:53.961Z,27.88
2023-03-14T18:01:54.218Z,27.83
2023-03-14T18:05:54.268Z,27.82
2023-03-14T18:09:54.530Z,27.84
2023-03-14T18:13:54.720Z,27.77
2023-03-14T18:17:54.907Z,27.80
2023-03-14T18:21:55.131Z,27.73
2023-03-14T18:25:55.092Z,27.70
2023-03-14T18:29:55.052Z,27.69
2023-03-14T18:33:55.045Z,28.04
2023-03-14T18:37:54.979Z,27.97
2023-03-14T18:41:54.968Z,27.59
2023-03-14T18:45:54.919Z,27.24
2023-03-14T18:49:54.868Z,27.05
2023-03-14T18:54:02.915Z,26.92
2023-03-14T18:57:55.818Z,26.77
2023-03-14T19:01:54.805Z,26.65
2023-03-14T19:05:54.951Z,26.53
2023-03-14T19:09:54.904Z,26.56
2023-03-14T19:13:54.943Z,26.60
2023-03-14T19:17:54.795Z,26.64
2023-03-14T19:21:54.863Z,26.64
2023-03-14T19:25:54.793Z,26.71
2023-03-14T19:29:54.708Z,26.71
2023-03-14T19:33:54.654Z,26.70
2023-03-14T19:37:54.624Z,26.68
2023-03-14T19:41:54.602Z,26.74
2023-03-14T19:45:54.837Z,26.72
2023-03-14T19:49:54.656Z,26.77
2023-03-14T19:53:54.713Z,26.77
2023-03-14T19:57:54.656Z,26.82
2023-03-14T20:01:54.563Z,26.82
2023-03-14T20:05:54.574Z,26.85
2023-03-14T20:09:54.479Z,26.84
2023-03-14T20:13:54.452Z,26.86
2023-03-14T20:17:54.444Z,26.85
2023-03-14T20:21:54.409Z,26.89
2023-03-14T20:25:54.372Z,26.88
2023-03-14T20:29:54.606Z,26.93
2023-03-14T20:33:54.613Z,26.90
2023-03-14T20:37:54.544Z,26.80
2023-03-14T20:41:54.486Z,26.84
2023-03-14T20:45:54.631Z,26.84
2023-03-14T20:49:54.482Z,26.87
2023-03-14T20:53:54.423Z,26.82
2023-03-14T20:57:54.374Z,26.88
2023-03-14T21:01:54.414Z,26.87
2023-03-14T21:05:54.255Z,26.87
2023-03-14T21:09:54.231Z,26.88
2023-03-14T21:13:54.189Z,26.91
2023-03-14T21:17:54.129Z,26.88
2023-03-14T21:21:54.159Z,26.90
2023-03-14T21:25:54.185Z,26.94
2023-03-14T21:29:54.235Z,26.90
2023-03-14T21:33:54.301Z,26.91
2023-03-14T21:37:54.446Z,26.87
2023-03-14T21:41:54.356Z,26.90
2023-03-14T21:45:54.484Z,26.94
2023-03-14T21:49:54.513Z,26.87
2023-03-14T21:53:54.632Z,26.92
2023-03-14T21:57:54.547Z,26.89
2023-03-14T22:01:54.615Z,26.92
2023-03-14T22:05:54.495Z,26.90
2023-03-14T22:09:54.425Z,26.91
2023-03-14T22:13:54.450Z,26.92
2023-03-14T22:17:54.370Z,26.90
2023-03-14T22:21:54.325Z,26.97
2023-03-14T22:25:54.317Z,26.96
2023-03-14T22:29:54.258Z,26.96
2023-03-14T22:33:54.219Z,26.95
2023-03-14T22:37:54.202Z,26.97
2023-03-14T22:41:54.164Z,26.95
2023-03-14T22:45:54.188Z,26.99
2023-03-14T22:49:54.066Z,26.97
2023-03-14T22:53:54.039Z,26.94
2023-03-14T22:57:53.992Z,26.99
2023-03-14T23:01:53.948Z,26.98
2023-03-14T23:05:53.901Z,27.01
2023-03-14T23:09:53.892Z,27.01
2023-03-14T23:13:53.851Z,26.98
2023-03-14T23:17:53.834Z,27.04
2023-03-14T23:21:53.771Z,27.01
2023-03-14T23:25:54.040Z,26.97
2023-03-14T23:29:54.650Z,27.03
2023-03-14T23:33:53.663Z,27.02
2023-03-14T23:37:53.618Z,27.00
2023-03-14T23:41:53.631Z,27.00
2023-03-14T23:45:53.585Z,27.06
2023-03-14T23:49:53.561Z,27.02
2023-03-14T23:53:53.491Z,27.01
2023-03-14T23:57:53.446Z,26.99
